createdAt,value
2023-01-09T00:00:57.156Z,3.60
2023-01-09T00:03:23.583Z,3.50
2023-01-09T00:05:50.071Z,3.22
2023-01-09T00:08:16.555Z,3.67
2023-01-09T00:10:42.965Z,3.55
2023-01-09T00:13:14.109Z,3.67
2023-01-09T00:15:41.278Z,3.47
2023-01-09T00:18:16.508Z,4.00
2023-01-09T00:20:42.988Z,4.70
2023-01-09T00:23:09.615Z,3.78
2023-01-09T00:25:36.756Z,4.15
2023-01-09T00:28:03.422Z,3.65
2023-01-09T00:30:29.909Z,3.67
2023-01-09T00:32:56.649Z,4.20
2023-01-09T00:35:25.183Z,3.63
2023-01-09T00:37:51.825Z,3.47
2023-01-09T00:40:19.597Z,3.53
2023-01-09T00:42:51.284Z,5.47
2023-01-09T00:47:52.727Z,4.57
2023-01-09T00:50:23.149Z,4.95
2023-01-09T00:52:51.456Z,5.03
2023-01-09T00:55:18.116Z,5.03
2023-01-09T00:57:44.753Z,5.60
2023-01-09T01:00:12.850Z,5.72
2023-01-09T01:02:39.306Z,5.50
2023-01-09T01:05:25.266Z,5.50
2023-01-09T01:07:52.331Z,5.57
2023-01-09T01:10:24.517Z,6.35
2023-01-09T01:12:51.802Z,7.63
2023-01-09T01:15:19.490Z,6.32
2023-01-09T01:17:48.316Z,6.80
2023-01-09T01:20:19.881Z,6.93
2023-01-09T01:22:46.882Z,6.32
2023-01-09T01:25:15.165Z,6.32
2023-01-09T01:27:41.584Z,6.95
2023-01-09T01:30:11.436Z,6.47
2023-01-09T01:32:39.502Z,5.82
2023-01-09T01:35:07.624Z,6.63
2023-01-09T01:37:35.930Z,5.90
2023-01-09T01:40:03.107Z,6.13
2023-01-09T01:42:29.857Z,5.50
2023-01-09T01:44:58.378Z,5.13
2023-01-09T01:47:52.623Z,4.90
2023-01-09T01:52:52.098Z,5.05
2023-01-09T01:55:19.502Z,5.03
2023-01-09T01:57:49.582Z,4.85
2023-01-09T02:00:18.309Z,4.53
2023-01-09T02:02:47.763Z,4.68
2023-01-09T02:05:22.819Z,5.07
2023-01-09T02:07:49.428Z,4.55
2023-01-09T02:10:16.228Z,4.15
2023-01-09T02:12:42.881Z,3.65
2023-01-09T02:15:13.717Z,4.55
2023-01-09T02:18:07.650Z,4.22
2023-01-09T02:20:43.481Z,3.65
2023-01-09T02:23:29.378Z,3.83
2023-01-09T02:26:23.892Z,3.80
2023-01-09T02:29:40.985Z,4.40
2023-01-09T02:32:35.593Z,3.38
2023-01-09T02:35:26.496Z,3.00
2023-01-09T02:38:11.794Z,3.28
2023-01-09T02:40:53.455Z,3.35
2023-01-09T02:43:24.201Z,3.80
2023-01-09T02:45:50.622Z,3.38
2023-01-09T02:48:17.140Z,2.80
2023-01-09T02:51:09.153Z,2.75
2023-01-09T02:53:56.416Z,2.88
2023-01-09T02:56:30.090Z,2.97
2023-01-09T02:59:18.331Z,2.67
2023-01-09T03:02:04.188Z,2.72
2023-01-09T03:04:44.047Z,2.90
2023-01-09T03:07:45.570Z,2.58
2023-01-09T03:10:22.119Z,2.50
2023-01-09T03:12:52.451Z,2.90
2023-01-09T03:15:24.299Z,2.30
2023-01-09T03:17:51.484Z,2.50
2023-01-09T03:20:22.168Z,2.30
2023-01-09T03:23:04.270Z,2.40
2023-01-09T03:25:31.960Z,2.40
2023-01-09T03:28:01.219Z,2.47
2023-01-09T03:30:29.687Z,1.98
2023-01-09T03:32:57.493Z,2.10
2023-01-09T03:35:24.865Z,1.90
2023-01-09T03:37:51.971Z,2.20
2023-01-09T03:40:19.878Z,1.75
2023-01-09T03:42:46.981Z,1.83
2023-01-09T03:45:13.928Z,2.20
2023-01-09T03:47:40.629Z,1.70
2023-01-09T03:50:07.774Z,1.30
2023-01-09T03:52:37.476Z,1.50
2023-01-09T03:55:04.258Z,2.40
2023-01-09T03:57:30.747Z,1.60
2023-01-09T03:59:57.164Z,1.48
2023-01-09T04:02:23.671Z,1.50
2023-01-09T04:04:50.198Z,1.20
2023-01-09T04:07:16.605Z,1.40
2023-01-09T04:09:43.029Z,1.40
2023-01-09T04:12:09.684Z,1.20
2023-01-09T04:14:44.885Z,1.40
2023-01-09T04:17:11.446Z,1.10
2023-01-09T04:19:39.303Z,1.30
2023-01-09T04:22:05.719Z,1.40
2023-01-09T04:24:32.471Z,1.70
2023-01-09T04:26:59.169Z,1.50
2023-01-09T04:29:25.645Z,1.52
2023-01-09T04:31:52.029Z,1.35
2023-01-09T04:34:18.590Z,1.40
2023-01-09T04:36:44.999Z,1.63
2023-01-09T04:39:11.512Z,1.95
2023-01-09T04:41:52.967Z,1.67
2023-01-09T04:44:28.074Z,1.58
2023-01-09T04:46:56.458Z,1.60
2023-01-09T04:49:23.405Z,1.70
2023-01-09T04:51:49.870Z,1.40
2023-01-09T04:54:16.924Z,1.17
2023-01-09T04:56:48.002Z,1.40
2023-01-09T04:59:14.828Z,1.50
2023-01-09T05:01:41.671Z,1.45
2023-01-09T05:04:08.745Z,1.30
2023-01-09T05:06:35.526Z,1.70
2023-01-09T05:09:02.007Z,1.38
2023-01-09T05:11:28.614Z,1.35
2023-01-09T05:13:55.070Z,0.90
2023-01-09T05:16:22.937Z,1.10
2023-01-09T05:18:49.420Z,1.30
2023-01-09T05:21:16.628Z,1.10
2023-01-09T05:23:43.110Z,1.00
2023-01-09T05:26:09.550Z,1.00
2023-01-09T05:28:35.956Z,1.38
2023-01-09T05:31:02.738Z,1.00
2023-01-09T05:33:29.586Z,0.95
2023-01-09T05:35:56.579Z,1.00
2023-01-09T05:38:23.143Z,0.73
2023-01-09T05:40:53.404Z,0.70
2023-01-09T05:43:19.822Z,0.70
2023-01-09T05:45:46.482Z,0.43
2023-01-09T05:48:12.922Z,0.60
2023-01-09T05:50:39.383Z,0.45
2023-01-09T05:53:06.695Z,0.57
2023-01-09T05:55:34.157Z,0.40
2023-01-09T05:58:00.753Z,0.45
2023-01-09T06:00:27.388Z,0.45
2023-01-09T06:02:56.613Z,0.38
2023-01-09T06:05:23.207Z,0.47
2023-01-09T06:07:49.643Z,0.30
2023-01-09T06:10:17.102Z,0.30
2023-01-09T06:12:48.425Z,0.40
2023-01-09T06:15:18.108Z,0.40
2023-01-09T06:17:44.559Z,0.40
2023-01-09T06:20:11.932Z,0.50
2023-01-09T06:22:38.435Z,0.43
2023-01-09T06:25:05.712Z,0.50
2023-01-09T06:27:32.228Z,0.35
2023-01-09T06:30:02.482Z,0.38
2023-01-09T06:32:28.911Z,0.43
2023-01-09T06:34:55.395Z,0.50
2023-01-09T06:37:21.909Z,0.57
2023-01-09T06:39:48.407Z,0.30
2023-01-09T06:42:14.891Z,0.47
2023-01-09T06:44:41.638Z,0.55
2023-01-09T06:47:08.152Z,0.73
2023-01-09T06:49:35.098Z,0.32
2023-01-09T06:52:05.477Z,0.50
2023-01-09T06:54:32.745Z,0.57
2023-01-09T06:56:59.633Z,0.60
2023-01-09T06:59:26.307Z,0.82
2023-01-09T07:01:53.263Z,0.30
2023-01-09T07:04:22.442Z,0.30
2023-01-09T07:06:49.488Z,0.40
2023-01-09T07:09:15.985Z,0.47
2023-01-09T07:11:42.757Z,0.40
2023-01-09T07:14:09.364Z,0.73
2023-01-09T07:16:35.814Z,0.25
2023-01-09T07:19:02.235Z,0.35
2023-01-09T07:21:28.749Z,0.35
2023-01-09T07:23:55.180Z,0.60
2023-01-09T07:26:22.470Z,0.30
2023-01-09T07:28:48.881Z,0.68
2023-01-09T07:31:15.374Z,0.60
2023-01-09T07:33:41.836Z,0.38
2023-01-09T07:36:11.347Z,0.30
2023-01-09T07:38:37.918Z,0.70
2023-01-09T07:41:04.487Z,1.20
2023-01-09T07:43:31.263Z,1.25
2023-01-09T07:45:57.849Z,0.90
2023-01-09T07:48:24.279Z,1.23
2023-01-09T07:50:50.721Z,0.43
2023-01-09T07:53:17.113Z,4.93
2023-01-09T07:55:44.729Z,1.95
2023-01-09T07:58:11.240Z,1.50
2023-01-09T08:00:38.024Z,1.00
2023-01-09T08:03:05.326Z,0.80
2023-01-09T08:05:31.857Z,0.50
2023-01-09T08:07:58.278Z,0.60
2023-01-09T08:10:24.806Z,0.22
2023-01-09T08:12:51.763Z,0.68
2023-01-09T08:15:18.192Z,0.60
2023-01-09T08:17:46.196Z,0.98
2023-01-09T08:20:15.496Z,0.60
2023-01-09T08:22:43.503Z,0.57
2023-01-09T08:25:12.390Z,0.50
2023-01-09T08:27:39.516Z,0.40
2023-01-09T08:30:06.660Z,0.63
2023-01-09T08:32:33.364Z,0.60
2023-01-09T08:34:59.895Z,0.60
2023-01-09T08:37:26.378Z,0.43
2023-01-09T08:39:53.399Z,0.85
2023-01-09T08:42:39.503Z,5.00
2023-01-09T08:45:29.847Z,1.52
2023-01-09T08:47:59.643Z,1.38
2023-01-09T08:50:26.156Z,0.98
2023-01-09T08:52:52.811Z,1.60
2023-01-09T08:55:19.599Z,2.60
2023-01-09T08:57:52.906Z,1.75
2023-01-09T09:00:23.634Z,1.20
2023-01-09T09:02:54.815Z,1.52
2023-01-09T09:05:22.757Z,1.70
2023-01-09T09:07:50.531Z,1.58
2023-01-09T09:10:17.860Z,1.98
2023-01-09T09:12:44.683Z,2.55
2023-01-09T09:15:25.823Z,0.85
2023-01-09T09:18:00.979Z,1.45
2023-01-09T09:20:38.793Z,2.75
2023-01-09T09:23:06.563Z,1.50
2023-01-09T09:25:33.029Z,1.45
2023-01-09T09:28:01.161Z,1.00
2023-01-09T09:30:30.955Z,1.00
2023-01-09T09:32:57.379Z,1.50
2023-01-09T09:35:24.940Z,1.75
2023-01-09T09:38:00.545Z,1.23
2023-01-09T09:40:42.659Z,1.55
2023-01-09T09:43:47.999Z,1.15
2023-01-09T09:46:34.862Z,1.00
2023-01-09T09:49:14.892Z,1.00
2023-01-09T09:51:50.066Z,1.17
2023-01-09T09:54:25.766Z,1.75
2023-01-09T09:56:56.671Z,1.20
2023-01-09T09:59:27.181Z,0.93
2023-01-09T10:02:06.102Z,1.73
2023-01-09T10:04:35.467Z,3.63
2023-01-09T10:07:06.161Z,0.90
2023-01-09T10:09:45.048Z,1.70
2023-01-09T10:12:17.297Z,1.38
2023-01-09T10:14:43.796Z,1.15
2023-01-09T10:17:25.606Z,1.30
2023-01-09T10:19:52.256Z,1.05
2023-01-09T10:22:46.597Z,0.90
2023-01-09T10:28:06.948Z,0.70
2023-01-09T10:30:46.050Z,0.90
2023-01-09T10:33:18.203Z,1.00
2023-01-09T10:36:05.892Z,1.27
2023-01-09T10:38:38.956Z,0.77
2023-01-09T10:41:25.001Z,0.57
2023-01-09T10:44:00.648Z,0.73
2023-01-09T10:46:59.851Z,1.08
2023-01-09T10:49:26.792Z,0.80
2023-01-09T10:52:00.737Z,0.63
2023-01-09T10:54:29.448Z,0.80
2023-01-09T10:57:00.436Z,1.10
2023-01-09T10:59:27.090Z,0.90
2023-01-09T11:01:53.792Z,0.65
2023-01-09T11:04:32.500Z,0.77
2023-01-09T11:07:02.960Z,0.90
2023-01-09T11:09:59.675Z,0.60
2023-01-09T11:12:31.430Z,1.10
2023-01-09T11:15:28.947Z,0.93
2023-01-09T11:18:16.655Z,1.00
2023-01-09T11:20:43.190Z,1.55
2023-01-09T11:23:23.384Z,0.77
2023-01-09T11:25:55.018Z,1.35
2023-01-09T11:28:23.085Z,1.00
2023-01-09T11:30:57.031Z,0.82
2023-01-09T11:33:26.385Z,1.67
2023-01-09T11:36:04.019Z,1.25
2023-01-09T11:38:33.524Z,0.90
2023-01-09T11:41:04.743Z,1.00
2023-01-09T11:43:35.466Z,0.90
2023-01-09T11:46:07.009Z,1.50
2023-01-09T11:48:35.566Z,1.23
2023-01-09T11:51:06.740Z,1.25
2023-01-09T11:53:48.445Z,0.90
2023-01-09T11:56:17.151Z,0.95
2023-01-09T11:58:44.105Z,1.60
2023-01-09T12:01:45.550Z,1.10
2023-01-09T12:04:25.003Z,1.23
2023-01-09T12:07:25.193Z,0.60
2023-01-09T12:10:20.131Z,0.80
2023-01-09T12:13:02.513Z,1.20
2023-01-09T12:15:33.457Z,0.90
2023-01-09T12:18:31.111Z,0.80
2023-01-09T12:21:26.816Z,0.98
2023-01-09T12:24:03.200Z,0.82
2023-01-09T12:26:54.478Z,0.98
2023-01-09T12:29:50.039Z,1.15
2023-01-09T12:32:46.818Z,0.90
2023-01-09T12:35:40.974Z,0.90
2023-01-09T12:38:25.894Z,0.93
2023-01-09T12:41:09.534Z,0.90
2023-01-09T12:44:08.508Z,0.88
2023-01-09T12:46:44.892Z,0.75
2023-01-09T12:49:28.041Z,1.13
2023-01-09T12:52:10.797Z,1.20
2023-01-09T12:54:45.770Z,1.20
2023-01-09T12:57:25.180Z,0.80
2023-01-09T13:00:00.308Z,0.82
2023-01-09T13:02:42.931Z,0.77
2023-01-09T13:05:18.125Z,0.93
2023-01-09T13:07:47.861Z,0.77
2023-01-09T13:10:22.518Z,0.73
2023-01-09T13:12:50.848Z,0.80
2023-01-09T13:15:35.793Z,0.60
2023-01-09T13:18:20.916Z,2.60
2023-01-09T13:20:56.708Z,0.90
2023-01-09T13:23:46.876Z,0.68
2023-01-09T13:26:22.122Z,0.80
2023-01-09T13:28:54.866Z,0.85
2023-01-09T13:31:37.702Z,0.73
2023-01-09T13:36:55.575Z,0.40
2023-01-09T13:39:32.325Z,0.55
2023-01-09T13:42:23.899Z,0.70
2023-01-09T13:44:55.050Z,0.60
2023-01-09T13:47:28.739Z,0.50
2023-01-09T13:52:24.370Z,0.77
2023-01-09T13:54:58.158Z,0.80
2023-01-09T13:57:29.787Z,0.70
2023-01-09T14:00:17.743Z,0.90
2023-01-09T14:02:46.629Z,0.70
2023-01-09T14:05:37.625Z,0.70
2023-01-09T14:08:14.767Z,1.00
2023-01-09T14:10:44.723Z,1.00
2023-01-09T14:13:20.942Z,1.15
2023-01-09T14:15:49.906Z,0.90
2023-01-09T14:18:31.930Z,2.28
2023-01-09T14:21:04.482Z,0.68
2023-01-09T14:23:51.032Z,1.00
2023-01-09T14:26:21.754Z,0.80
2023-01-09T14:28:48.541Z,0.70
2023-01-09T14:31:32.971Z,1.00
2023-01-09T14:34:31.670Z,0.80
2023-01-09T14:37:01.768Z,0.85
2023-01-09T14:39:32.376Z,1.10
2023-01-09T14:42:08.668Z,1.00
2023-01-09T14:44:49.043Z,0.82
2023-01-09T14:47:24.740Z,0.90
2023-01-09T14:50:06.811Z,0.80
2023-01-09T14:52:39.513Z,0.70
2023-01-09T14:55:29.212Z,0.70
2023-01-09T14:57:57.362Z,1.05
2023-01-09T15:00:24.486Z,1.00
2023-01-09T15:02:53.353Z,1.00
2023-01-09T15:05:26.486Z,1.10
2023-01-09T15:08:06.017Z,0.95
2023-01-09T15:10:37.591Z,1.33
2023-01-09T15:13:07.844Z,0.95
2023-01-09T15:15:35.853Z,1.10
2023-01-09T15:18:07.898Z,1.02
2023-01-09T15:20:35.420Z,1.20
2023-01-09T15:23:05.020Z,1.00
2023-01-09T15:25:39.307Z,0.90
2023-01-09T15:28:41.090Z,0.63
2023-01-09T15:31:14.013Z,1.15
2023-01-09T15:33:42.084Z,1.15
2023-01-09T15:36:16.110Z,0.90
2023-01-09T15:38:43.802Z,0.90
2023-01-09T15:41:35.357Z,1.00
2023-01-09T15:44:04.254Z,1.10
2023-01-09T15:46:32.883Z,1.20
2023-01-09T15:49:00.247Z,1.40
2023-01-09T15:51:27.319Z,1.27
2023-01-09T15:53:57.524Z,1.40
2023-01-09T15:56:30.367Z,1.02
2023-01-09T15:58:59.332Z,0.80
2023-01-09T16:01:32.356Z,1.30
2023-01-09T16:04:11.859Z,1.90
2023-01-09T16:06:47.797Z,1.15
2023-01-09T16:09:32.077Z,2.00
2023-01-09T16:12:01.769Z,1.30
2023-01-09T16:14:38.562Z,1.73
2023-01-09T16:17:08.924Z,2.50
2023-01-09T16:19:41.424Z,1.88
2023-01-09T16:22:25.939Z,1.45
2023-01-09T16:24:58.391Z,1.20
2023-01-09T16:27:37.213Z,1.30
2023-01-09T16:30:08.677Z,1.05
2023-01-09T16:32:45.927Z,2.03
2023-01-09T16:35:18.576Z,0.90
2023-01-09T16:37:45.508Z,3.47
2023-01-09T16:40:15.774Z,2.00
2023-01-09T16:43:01.965Z,2.72
2023-01-09T16:45:33.760Z,1.90
2023-01-09T16:48:01.978Z,2.38
2023-01-09T16:50:29.029Z,11.82
2023-01-09T16:52:56.929Z,3.88
2023-01-09T16:55:23.428Z,1.50
2023-01-09T16:57:49.884Z,2.33
2023-01-09T17:00:18.883Z,3.30
2023-01-09T17:02:45.482Z,2.58
2023-01-09T17:05:12.049Z,2.10
2023-01-09T17:07:38.568Z,1.70
2023-01-09T17:10:06.247Z,2.38
2023-01-09T17:12:32.695Z,0.63
2023-01-09T17:15:00.909Z,1.30
2023-01-09T17:17:27.381Z,2.13
2023-01-09T17:19:54.077Z,1.20
2023-01-09T17:22:20.708Z,1.73
2023-01-09T17:25:08.651Z,3.50
2023-01-09T17:27:55.817Z,2.10
2023-01-09T17:30:22.851Z,3.75
2023-01-09T17:32:49.468Z,1.42
2023-01-09T17:35:16.276Z,1.23
2023-01-09T17:37:43.233Z,2.30
2023-01-09T17:40:22.259Z,1.67
2023-01-09T17:42:48.751Z,1.48
2023-01-09T17:45:15.516Z,3.65
2023-01-09T17:47:42.025Z,3.08
2023-01-09T17:50:18.427Z,1.30
2023-01-09T17:52:44.979Z,3.88
2023-01-09T17:55:11.470Z,2.25
2023-01-09T17:57:37.937Z,1.90
2023-01-09T18:00:06.466Z,3.33
2023-01-09T18:02:33.019Z,1.95
2023-01-09T18:04:59.672Z,3.75
2023-01-09T18:07:26.106Z,4.32
2023-01-09T18:09:52.564Z,6.85
2023-01-09T18:12:19.380Z,7.20
2023-01-09T18:14:47.382Z,3.17
2023-01-09T18:17:14.425Z,3.47
2023-01-09T18:19:40.923Z,3.08
2023-01-09T18:22:07.381Z,1.70
2023-01-09T18:24:33.787Z,1.70
2023-01-09T18:27:00.272Z,1.05
2023-01-09T18:29:26.841Z,1.48
2023-01-09T18:31:53.621Z,2.30
2023-01-09T18:34:20.173Z,1.45
2023-01-09T18:36:47.389Z,1.48
2023-01-09T18:39:14.417Z,3.28
2023-01-09T18:41:41.026Z,1.90
2023-01-09T18:44:07.598Z,2.33
2023-01-09T18:46:34.041Z,3.55
2023-01-09T18:49:03.050Z,1.90
2023-01-09T18:51:29.996Z,2.38
2023-01-09T18:53:57.032Z,2.60
2023-01-09T18:56:25.403Z,1.92
2023-01-09T18:59:02.534Z,2.40
2023-01-09T19:01:31.048Z,1.70
2023-01-09T19:04:00.125Z,2.08
2023-01-09T19:06:28.872Z,2.13
2023-01-09T19:08:56.713Z,1.50
2023-01-09T19:11:23.974Z,2.88
2023-01-09T19:13:51.174Z,5.07
2023-01-09T19:16:19.162Z,4.60
2023-01-09T19:18:45.986Z,3.30
2023-01-09T19:21:15.512Z,2.85
2023-01-09T19:23:43.698Z,2.50
2023-01-09T19:26:18.423Z,1.60
2023-01-09T19:28:46.603Z,1.67
2023-01-09T19:31:14.202Z,2.20
2023-01-09T19:33:40.662Z,2.28
2023-01-09T19:36:07.546Z,1.98
2023-01-09T19:38:34.300Z,1.85
2023-01-09T19:41:15.973Z,1.90
2023-01-09T19:43:42.418Z,1.50
2023-01-09T19:46:15.394Z,1.75
2023-01-09T19:48:44.688Z,2.95
2023-01-09T19:51:13.206Z,1.92
2023-01-09T19:53:40.169Z,1.83
2023-01-09T19:56:10.196Z,1.50
2023-01-09T19:58:36.747Z,2.58
2023-01-09T20:01:12.163Z,2.05
2023-01-09T20:03:46.605Z,1.48
2023-01-09T20:06:18.901Z,1.70
2023-01-09T20:08:47.652Z,1.90
2023-01-09T20:11:15.566Z,2.50
2023-01-09T20:13:42.833Z,1.83
2023-01-09T20:16:15.712Z,1.70
2023-01-09T20:18:42.270Z,2.30
2023-01-09T20:21:09.078Z,2.13
2023-01-09T20:23:36.110Z,1.88
2023-01-09T20:26:03.705Z,2.05
2023-01-09T20:28:30.202Z,2.40
2023-01-09T20:30:57.622Z,1.80
2023-01-09T20:33:24.402Z,2.45
2023-01-09T20:35:51.043Z,1.90
2023-01-09T20:38:17.784Z,2.45
2023-01-09T20:40:44.214Z,2.20
2023-01-09T20:43:12.576Z,2.08
2023-01-09T20:45:40.279Z,1.92
2023-01-09T20:48:08.012Z,2.22
2023-01-09T20:50:34.436Z,1.80
2023-01-09T20:53:00.838Z,2.63
2023-01-09T20:55:27.220Z,2.70
2023-01-09T20:57:53.613Z,2.70
2023-01-09T21:00:20.709Z,2.78
2023-01-09T21:02:47.956Z,3.10
2023-01-09T21:05:14.508Z,2.47
2023-01-09T21:07:40.916Z,3.35
2023-01-09T21:10:07.738Z,2.47
2023-01-09T21:12:37.686Z,3.13
2023-01-09T21:15:06.478Z,1.95
2023-01-09T21:17:37.918Z,2.67
2023-01-09T21:20:11.001Z,2.35
2023-01-09T21:22:37.940Z,2.45
2023-01-09T21:25:05.731Z,2.40
2023-01-09T21:27:35.936Z,2.58
2023-01-09T21:30:03.966Z,2.40
2023-01-09T21:32:33.146Z,2.00
2023-01-09T21:35:04.160Z,2.30
2023-01-09T21:37:32.506Z,2.30
2023-01-09T21:39:59.964Z,2.05
2023-01-09T21:42:44.962Z,2.83
2023-01-09T21:45:34.496Z,2.17
2023-01-09T21:48:05.871Z,2.15
2023-01-09T21:50:38.638Z,2.72
2023-01-09T21:53:05.050Z,3.00
2023-01-09T21:55:34.370Z,3.50
2023-01-09T21:58:01.586Z,3.38
2023-01-09T22:00:28.524Z,3.20
2023-01-09T22:02:55.066Z,2.00
2023-01-09T22:05:22.008Z,4.30
2023-01-09T22:07:48.412Z,2.28
2023-01-09T22:10:14.899Z,4.13
2023-01-09T22:13:01.309Z,2.78
2023-01-09T22:15:27.745Z,3.72
2023-01-09T22:17:54.195Z,3.92
2023-01-09T22:20:20.618Z,2.72
2023-01-09T22:22:49.399Z,2.97
2023-01-09T22:25:16.154Z,3.20
2023-01-09T22:27:42.556Z,2.00
2023-01-09T22:30:10.667Z,2.30
2023-01-09T22:32:40.698Z,2.45
2023-01-09T22:35:07.594Z,2.83
2023-01-09T22:37:37.523Z,2.60
2023-01-09T22:40:04.366Z,2.83
2023-01-09T22:42:30.887Z,3.45
2023-01-09T22:44:57.387Z,3.05
2023-01-09T22:47:23.767Z,3.05
2023-01-09T22:49:53.957Z,2.70
2023-01-09T22:52:21.136Z,2.70
2023-01-09T22:54:48.209Z,3.10
2023-01-09T22:57:14.857Z,3.25
2023-01-09T22:59:42.372Z,3.35
2023-01-09T23:02:08.880Z,3.20
2023-01-09T23:04:35.336Z,2.75
2023-01-09T23:07:02.052Z,2.80
2023-01-09T23:09:28.465Z,3.20
2023-01-09T23:12:03.611Z,3.13
2023-01-09T23:14:35.893Z,3.42
2023-01-09T23:17:04.223Z,2.70
2023-01-09T23:19:32.366Z,3.08
2023-01-09T23:22:00.418Z,2.67
2023-01-09T23:24:28.020Z,3.65
2023-01-09T23:26:57.509Z,2.38
2023-01-09T23:29:24.802Z,2.83
2023-01-09T23:31:53.616Z,3.15
2023-01-09T23:34:25.663Z,3.03
2023-01-09T23:36:54.269Z,4.60
2023-01-09T23:39:21.088Z,3.17
2023-01-09T23:42:06.765Z,2.72
2023-01-09T23:44:33.249Z,3.10
2023-01-09T23:46:59.658Z,2.67
2023-01-09T23:49:26.082Z,3.28
2023-01-09T23:51:52.555Z,3.78
2023-01-09T23:54:19.014Z,4.13
2023-01-09T23:56:45.413Z,2.50
2023-01-09T23:59:14.199Z,3.90
